createdAt,value
2019-01-19T00:01:33.088Z,2.10
2019-01-19T00:04:16.547Z,2.07
2019-01-19T00:07:13.575Z,5.07
2019-01-19T00:10:01.682Z,2.90
2019-01-19T00:12:58.739Z,2.33
2019-01-19T00:15:33.139Z,3.93
2019-01-19T00:18:07.497Z,3.67
2019-01-19T00:20:44.561Z,1.73
2019-01-19T00:23:21.816Z,1.33
2019-01-19T00:26:11.232Z,1.80
2019-01-19T00:28:51.646Z,3.83
2019-01-19T00:31:25.735Z,2.30
2019-01-19T00:34:17.907Z,1.67
2019-01-19T00:36:52.152Z,5.90
2019-01-19T00:39:35.531Z,1.77
2019-01-19T00:42:13.049Z,1.43
2019-01-19T00:44:50.436Z,1.93
2019-01-19T00:47:33.399Z,1.73
2019-01-19T00:50:20.211Z,4.80
2019-01-19T00:53:06.543Z,2.60
2019-01-19T00:55:44.207Z,1.70
2019-01-19T00:58:18.660Z,4.50
2019-01-19T01:00:59.328Z,1.73
2019-01-19T01:03:30.881Z,1.57
2019-01-19T01:06:08.033Z,1.83
2019-01-19T01:08:39.556Z,2.80
2019-01-19T01:11:11.086Z,1.63
2019-01-19T01:13:54.644Z,2.30
2019-01-19T01:16:26.217Z,3.90
2019-01-19T01:18:57.755Z,2.97
2019-01-19T01:21:58.216Z,1.77
2019-01-19T01:24:35.644Z,2.40
2019-01-19T01:27:38.887Z,3.67
2019-01-19T01:30:28.412Z,4.87
2019-01-19T01:33:05.928Z,1.67
2019-01-19T01:36:07.091Z,3.83
2019-01-19T01:38:47.036Z,4.17
2019-01-19T01:41:39.540Z,1.40
2019-01-19T01:44:19.887Z,1.83
2019-01-19T01:47:06.511Z,2.80
2019-01-19T01:49:43.347Z,1.93
2019-01-19T01:52:26.612Z,2.07
2019-01-19T01:54:58.188Z,2.00
2019-01-19T01:57:26.832Z,1.47
2019-01-19T02:00:04.483Z,1.30
2019-01-19T02:02:38.583Z,2.30
2019-01-19T02:05:40.178Z,2.00
2019-01-19T02:08:08.386Z,2.30
2019-01-19T02:10:40.224Z,1.77
2019-01-19T02:13:28.449Z,1.40
2019-01-19T02:16:12.108Z,1.10
2019-01-19T02:19:07.896Z,2.03
2019-01-19T02:21:55.909Z,1.67
2019-01-19T02:24:59.348Z,1.70
2019-01-19T02:27:45.849Z,1.33
2019-01-19T02:30:40.050Z,1.80
2019-01-19T02:33:38.455Z,1.30
2019-01-19T02:36:15.668Z,2.00
2019-01-19T02:39:05.643Z,1.47
2019-01-19T02:41:37.220Z,1.73
2019-01-19T02:44:29.847Z,1.70
2019-01-19T02:47:16.204Z,2.23
2019-01-19T02:50:00.257Z,2.20
2019-01-19T02:52:34.603Z,1.27
2019-01-19T02:55:25.420Z,2.00
2019-01-19T02:58:02.960Z,2.13
2019-01-19T03:01:00.141Z,2.03
2019-01-19T03:03:37.388Z,2.07
2019-01-19T03:06:20.980Z,1.70
2019-01-19T03:09:04.437Z,2.07
2019-01-19T03:11:41.802Z,1.97
2019-01-19T03:14:39.053Z,1.53
2019-01-19T03:17:25.881Z,2.87
2019-01-19T03:20:06.088Z,1.40
2019-01-19T03:22:40.353Z,1.33
2019-01-19T03:25:26.639Z,1.30
2019-01-19T03:28:07.169Z,2.03
2019-01-19T03:31:04.519Z,3.03
2019-01-19T03:33:36.137Z,2.70
2019-01-19T03:36:30.516Z,3.33
2019-01-19T03:39:18.780Z,3.40
2019-01-19T03:42:05.195Z,2.40
2019-01-19T03:44:39.544Z,3.23
2019-01-19T03:47:33.740Z,2.13
2019-01-19T03:50:20.033Z,1.57
2019-01-19T03:53:00.441Z,2.73
2019-01-19T03:55:43.929Z,2.37
2019-01-19T03:58:21.418Z,1.57
2019-01-19T04:00:52.991Z,2.53
2019-01-19T04:03:45.851Z,2.83
2019-01-19T04:06:19.977Z,1.90
2019-01-19T04:09:12.603Z,1.63
2019-01-19T04:12:05.091Z,1.87
2019-01-19T04:14:45.589Z,2.37
2019-01-19T04:17:31.498Z,1.70
2019-01-19T04:20:17.872Z,2.00
2019-01-19T04:22:46.541Z,1.60
2019-01-19T04:25:18.243Z,2.30
2019-01-19T04:27:46.709Z,2.33
2019-01-19T04:30:15.222Z,2.73
2019-01-19T04:32:43.712Z,1.77
2019-01-19T04:35:12.321Z,1.63
2019-01-19T04:37:40.805Z,2.43
2019-01-19T04:40:11.906Z,2.90
2019-01-19T04:42:42.013Z,2.73
2019-01-19T04:45:10.544Z,3.07
2019-01-19T04:47:39.106Z,3.43
2019-01-19T04:50:10.333Z,3.80
2019-01-19T04:52:38.833Z,2.73
2019-01-19T04:55:07.968Z,6.00
2019-01-19T04:57:36.444Z,3.57
2019-01-19T05:00:07.982Z,2.37
2019-01-19T05:02:36.495Z,3.57
2019-01-19T05:05:06.439Z,4.80
2019-01-19T05:07:34.901Z,3.87
2019-01-19T05:10:05.325Z,4.23
2019-01-19T05:12:33.896Z,9.67
2019-01-19T05:15:02.379Z,5.47
2019-01-19T05:17:31.062Z,4.03
2019-01-19T05:19:59.617Z,3.70
2019-01-19T05:22:28.117Z,4.60
2019-01-19T05:24:56.636Z,5.77
2019-01-19T05:27:25.100Z,3.77
2019-01-19T05:29:53.564Z,5.03
2019-01-19T05:32:22.636Z,3.90
2019-01-19T05:34:51.280Z,3.93
2019-01-19T05:37:19.797Z,12.50
2019-01-19T05:39:48.290Z,4.83
2019-01-19T05:42:16.776Z,3.77
2019-01-19T05:44:45.248Z,6.90
2019-01-19T05:47:13.745Z,5.90
2019-01-19T05:49:42.224Z,4.20
2019-01-19T05:52:10.721Z,6.03
2019-01-19T05:54:39.203Z,4.27
2019-01-19T05:57:07.876Z,3.80
2019-01-19T05:59:36.548Z,5.53
2019-01-19T06:02:05.228Z,4.93
2019-01-19T06:04:33.713Z,6.40
2019-01-19T06:07:02.215Z,11.00
2019-01-19T06:09:30.910Z,3.73
2019-01-19T06:11:59.466Z,4.63
2019-01-19T06:14:28.061Z,5.90
2019-01-19T06:16:56.606Z,4.73
2019-01-19T06:19:25.538Z,5.03
2019-01-19T06:21:55.680Z,4.77
2019-01-19T06:24:24.181Z,6.47
2019-01-19T06:26:52.629Z,5.33
2019-01-19T06:29:21.145Z,4.90
2019-01-19T06:31:49.617Z,7.13
2019-01-19T06:34:18.088Z,4.13
2019-01-19T06:36:54.556Z,5.63
2019-01-19T06:39:17.234Z,5.50
2019-01-19T06:41:45.712Z,5.73
2019-01-19T06:44:14.292Z,4.80
2019-01-19T06:46:42.765Z,7.77
2019-01-19T06:49:11.233Z,5.13
2019-01-19T06:51:39.740Z,5.70
2019-01-19T06:54:08.462Z,4.73
2019-01-19T06:56:36.952Z,10.73
2019-01-19T06:59:05.514Z,6.57
2019-01-19T07:01:34.094Z,10.40
2019-01-19T07:04:02.656Z,8.27
2019-01-19T07:06:31.302Z,7.57
2019-01-19T07:08:59.821Z,7.80
2019-01-19T07:11:29.329Z,5.70
2019-01-19T07:13:59.093Z,4.77
2019-01-19T07:16:28.296Z,4.80
2019-01-19T07:18:56.818Z,5.00
2019-01-19T07:21:25.570Z,5.67
2019-01-19T07:23:54.165Z,7.53
2019-01-19T07:26:22.663Z,5.10
2019-01-19T07:28:51.141Z,4.37
2019-01-19T07:31:19.744Z,4.43
2019-01-19T07:33:48.289Z,8.10
2019-01-19T07:36:16.857Z,6.67
2019-01-19T07:38:45.373Z,4.83
2019-01-19T07:41:14.112Z,4.13
2019-01-19T07:43:42.652Z,7.50
2019-01-19T07:46:12.489Z,4.60
2019-01-19T07:48:41.005Z,5.87
2019-01-19T07:51:09.509Z,6.30
2019-01-19T07:53:38.139Z,7.17
2019-01-19T07:56:06.742Z,6.47
2019-01-19T07:58:35.214Z,6.73
2019-01-19T08:01:04.123Z,4.90
2019-01-19T08:03:32.641Z,5.53
2019-01-19T08:06:01.104Z,6.63
2019-01-19T08:08:29.593Z,11.43
2019-01-19T08:11:06.253Z,10.07
2019-01-19T08:13:34.724Z,7.40
2019-01-19T08:16:03.209Z,11.47
2019-01-19T08:18:31.701Z,53.47
2019-01-19T08:21:00.181Z,34.17
2019-01-19T08:23:28.673Z,14.13
2019-01-19T08:25:57.253Z,35.90
2019-01-19T08:28:25.729Z,10.57
2019-01-19T08:30:54.199Z,4.97
2019-01-19T08:33:22.705Z,4.77
2019-01-19T08:35:51.384Z,6.23
2019-01-19T08:38:19.920Z,6.53
2019-01-19T08:40:48.490Z,11.57
2019-01-19T08:43:18.627Z,11.27
2019-01-19T08:45:47.141Z,12.07
2019-01-19T08:48:16.083Z,10.57
2019-01-19T08:50:44.693Z,7.47
2019-01-19T08:53:13.168Z,9.63
2019-01-19T08:55:41.713Z,7.10
2019-01-19T08:58:10.181Z,8.80
2019-01-19T09:00:39.037Z,7.53
2019-01-19T09:03:07.545Z,10.60
2019-01-19T09:05:36.101Z,10.33
2019-01-19T09:08:05.032Z,13.40
2019-01-19T09:10:33.931Z,17.57
2019-01-19T09:13:02.482Z,20.53
2019-01-19T09:15:30.944Z,15.60
2019-01-19T09:17:59.448Z,13.73
2019-01-19T09:20:27.929Z,11.80
2019-01-19T09:23:00.834Z,13.13
2019-01-19T09:25:29.401Z,15.23
2019-01-19T09:27:58.093Z,13.03
2019-01-19T09:30:26.861Z,26.53
2019-01-19T09:32:55.468Z,12.47
2019-01-19T09:35:24.049Z,8.47
2019-01-19T09:37:52.509Z,6.03
2019-01-19T09:40:21.051Z,9.17
2019-01-19T09:42:49.606Z,17.67
2019-01-19T09:45:19.650Z,38.23
2019-01-19T09:47:48.188Z,15.73
2019-01-19T09:50:18.388Z,10.93
2019-01-19T09:52:47.039Z,14.00
2019-01-19T09:55:15.652Z,7.57
2019-01-19T09:57:44.468Z,13.53
2019-01-19T10:00:18.773Z,8.37
2019-01-19T10:02:47.413Z,16.93
2019-01-19T10:05:18.553Z,6.00
2019-01-19T10:07:48.752Z,8.70
2019-01-19T10:10:17.380Z,5.13
2019-01-19T10:12:46.920Z,6.27
2019-01-19T10:15:20.719Z,10.00
2019-01-19T10:17:49.177Z,7.13
2019-01-19T10:20:28.907Z,8.63
2019-01-19T10:22:57.570Z,19.33
2019-01-19T10:25:26.504Z,7.93
2019-01-19T10:27:54.973Z,7.10
2019-01-19T10:30:30.889Z,11.23
2019-01-19T10:32:59.500Z,5.03
2019-01-19T10:35:27.992Z,15.07
2019-01-19T10:37:57.014Z,8.10
2019-01-19T10:40:25.596Z,5.70
2019-01-19T10:42:54.157Z,5.57
2019-01-19T10:45:27.867Z,15.33
2019-01-19T10:47:56.420Z,8.57
2019-01-19T10:50:24.937Z,8.60
2019-01-19T10:52:53.638Z,4.90
2019-01-19T10:55:23.845Z,19.00
2019-01-19T10:57:52.452Z,8.17
2019-01-19T11:00:29.509Z,14.17
2019-01-19T11:02:58.888Z,5.57
2019-01-19T11:05:27.942Z,10.10
2019-01-19T11:08:03.202Z,12.73
2019-01-19T11:10:29.490Z,8.43
2019-01-19T11:12:58.047Z,11.40
2019-01-19T11:15:26.617Z,7.87
2019-01-19T11:17:55.101Z,15.37
2019-01-19T11:20:29.237Z,10.67
2019-01-19T11:22:58.840Z,9.47
2019-01-19T11:25:27.406Z,7.23
2019-01-19T11:27:55.983Z,15.83
2019-01-19T11:30:27.108Z,7.53
2019-01-19T11:32:55.656Z,7.17
2019-01-19T11:35:24.276Z,5.33
2019-01-19T11:37:52.981Z,10.47
2019-01-19T11:40:27.100Z,5.03
2019-01-19T11:42:55.570Z,7.17
2019-01-19T11:45:24.205Z,4.97
2019-01-19T11:47:52.774Z,8.57
2019-01-19T11:50:22.739Z,10.47
2019-01-19T11:52:51.595Z,7.47
2019-01-19T11:55:21.524Z,12.23
2019-01-19T11:57:52.965Z,8.17
2019-01-19T12:00:29.908Z,6.77
2019-01-19T12:02:58.377Z,9.43
2019-01-19T12:05:27.001Z,5.63
2019-01-19T12:07:55.650Z,3.83
2019-01-19T12:10:26.471Z,4.00
2019-01-19T12:12:55.081Z,8.17
2019-01-19T12:15:23.825Z,5.57
2019-01-19T12:17:52.517Z,6.57
2019-01-19T12:20:27.064Z,6.17
2019-01-19T12:22:55.767Z,6.13
2019-01-19T12:25:25.708Z,6.53
2019-01-19T12:27:54.323Z,10.00
2019-01-19T12:30:30.956Z,16.90
2019-01-19T12:32:59.588Z,8.00
2019-01-19T12:35:28.386Z,6.77
2019-01-19T12:37:58.127Z,9.83
2019-01-19T12:40:32.008Z,28.07
2019-01-19T12:43:03.621Z,6.10
2019-01-19T12:45:35.479Z,6.80
2019-01-19T12:48:03.997Z,5.43
2019-01-19T12:50:32.537Z,7.93
2019-01-19T12:53:01.011Z,15.47
2019-01-19T12:55:29.616Z,10.40
2019-01-19T12:57:58.069Z,10.07
2019-01-19T13:00:28.724Z,32.63
2019-01-19T13:02:57.468Z,5.33
2019-01-19T13:05:33.112Z,5.67
2019-01-19T13:08:02.481Z,3.70
2019-01-19T13:10:34.197Z,5.70
2019-01-19T13:13:04.313Z,6.80
2019-01-19T13:15:50.797Z,6.70
2019-01-19T13:18:31.018Z,5.93
2019-01-19T13:21:19.023Z,3.77
2019-01-19T13:24:02.373Z,11.60
2019-01-19T13:26:59.285Z,7.50
2019-01-19T13:29:58.101Z,13.00
2019-01-19T13:32:48.995Z,6.53
2019-01-19T13:35:42.934Z,7.47
2019-01-19T13:38:41.789Z,26.03
2019-01-19T13:41:19.146Z,18.20
2019-01-19T13:44:07.173Z,7.17
2019-01-19T13:46:56.924Z,9.93
2019-01-19T13:49:49.649Z,7.17
2019-01-19T13:52:24.201Z,10.67
2019-01-19T13:55:01.501Z,7.50
2019-01-19T13:57:33.112Z,13.83
2019-01-19T14:00:18.515Z,10.30
2019-01-19T14:03:03.521Z,8.67
2019-01-19T14:05:53.285Z,10.23
2019-01-19T14:08:36.564Z,12.07
2019-01-19T14:11:19.798Z,11.03
2019-01-19T14:14:07.764Z,10.33
2019-01-19T14:16:57.565Z,14.90
2019-01-19T14:19:40.682Z,8.63
2019-01-19T14:22:14.945Z,7.47
2019-01-19T14:24:52.222Z,10.10
2019-01-19T14:27:42.797Z,8.40
2019-01-19T14:30:26.141Z,15.30
2019-01-19T14:33:32.310Z,8.57
2019-01-19T14:36:10.029Z,8.23
2019-01-19T14:38:47.260Z,8.10
2019-01-19T14:41:34.005Z,29.40
2019-01-19T14:44:17.718Z,8.97
2019-01-19T14:46:54.984Z,12.57
2019-01-19T14:49:46.109Z,12.27
2019-01-19T14:52:20.449Z,8.60
2019-01-19T14:55:01.000Z,7.70
2019-01-19T14:57:47.505Z,10.03
2019-01-19T15:00:24.701Z,25.70
2019-01-19T15:03:01.850Z,16.03
2019-01-19T15:06:03.532Z,17.50
2019-01-19T15:09:03.776Z,11.23
2019-01-19T15:11:43.155Z,13.90
2019-01-19T15:14:14.889Z,9.47
2019-01-19T15:16:49.514Z,14.47
2019-01-19T15:19:37.757Z,11.70
2019-01-19T15:22:31.137Z,10.63
2019-01-19T15:25:14.842Z,5.60
2019-01-19T15:27:49.070Z,6.40
2019-01-19T15:30:38.934Z,16.57
2019-01-19T15:33:22.777Z,10.43
2019-01-19T15:36:02.701Z,7.97
2019-01-19T15:38:49.161Z,9.83
2019-01-19T15:41:41.672Z,9.17
2019-01-19T15:44:18.277Z,13.03
2019-01-19T15:47:18.366Z,10.97
2019-01-19T15:50:18.169Z,10.80
2019-01-19T15:53:11.148Z,11.73
2019-01-19T15:55:45.923Z,12.50
2019-01-19T15:58:32.555Z,8.17
2019-01-19T16:01:06.986Z,6.90
2019-01-19T16:03:55.330Z,9.30
2019-01-19T16:06:35.766Z,19.60
2019-01-19T16:09:07.420Z,12.47
2019-01-19T16:11:57.125Z,9.63
2019-01-19T16:15:00.280Z,7.73
2019-01-19T16:17:55.824Z,8.37
2019-01-19T16:20:39.361Z,15.83
2019-01-19T16:23:28.978Z,12.83
2019-01-19T16:26:12.240Z,11.93
2019-01-19T16:29:01.589Z,11.83
2019-01-19T16:31:33.429Z,11.70
2019-01-19T16:34:21.384Z,12.83
2019-01-19T16:37:16.928Z,9.43
2019-01-19T16:40:13.864Z,10.07
2019-01-19T16:43:03.379Z,11.80
2019-01-19T16:45:37.797Z,10.23
2019-01-19T16:48:15.065Z,10.03
2019-01-19T16:51:01.322Z,9.60
2019-01-19T16:53:35.737Z,10.43
2019-01-19T16:56:16.230Z,8.90
2019-01-19T16:58:56.519Z,11.00
2019-01-19T17:01:53.077Z,15.10
2019-01-19T17:04:27.209Z,15.03
2019-01-19T17:06:58.825Z,19.13
2019-01-19T17:09:33.407Z,11.10
2019-01-19T17:12:13.755Z,14.30
2019-01-19T17:15:14.006Z,8.07
2019-01-19T17:17:51.361Z,10.23
2019-01-19T17:20:23.114Z,13.03
2019-01-19T17:23:00.606Z,8.63
2019-01-19T17:25:38.027Z,8.63
2019-01-19T17:28:15.373Z,7.10
2019-01-19T17:31:03.245Z,8.47
2019-01-19T17:33:37.552Z,10.53
2019-01-19T17:36:18.186Z,12.43
2019-01-19T17:39:15.524Z,11.73
2019-01-19T17:42:05.436Z,11.33
2019-01-19T17:44:56.525Z,12.17
2019-01-19T17:47:28.211Z,16.47
2019-01-19T17:50:17.806Z,40.13
2019-01-19T17:53:02.788Z,27.40
2019-01-19T17:55:46.362Z,15.30
2019-01-19T17:58:39.910Z,20.00
2019-01-19T18:01:32.917Z,17.90
2019-01-19T18:04:09.637Z,12.60
2019-01-19T18:06:41.194Z,11.23
2019-01-19T18:09:15.679Z,8.90
2019-01-19T18:11:55.979Z,16.10
2019-01-19T18:14:30.213Z,17.00
2019-01-19T18:17:33.277Z,18.93
2019-01-19T18:20:20.014Z,16.83
2019-01-19T18:23:12.825Z,11.77
2019-01-19T18:26:03.831Z,12.87
2019-01-19T18:28:39.073Z,16.13
2019-01-19T18:31:23.492Z,18.90
2019-01-19T18:33:55.178Z,13.03
2019-01-19T18:36:35.369Z,15.40
2019-01-19T18:39:16.203Z,17.20
2019-01-19T18:41:59.838Z,17.07
2019-01-19T18:44:34.017Z,12.03
2019-01-19T18:47:17.430Z,13.83
2019-01-19T18:50:04.050Z,16.20
2019-01-19T18:52:57.217Z,10.97
2019-01-19T18:55:28.843Z,14.03
2019-01-19T18:58:09.266Z,13.07
2019-01-19T19:00:49.318Z,10.17
2019-01-19T19:03:43.701Z,11.07
2019-01-19T19:06:33.340Z,16.77
2019-01-19T19:09:13.102Z,15.23
2019-01-19T19:12:07.427Z,14.90
2019-01-19T19:14:50.711Z,15.13
2019-01-19T19:17:41.506Z,17.40
2019-01-19T19:20:18.748Z,15.27
2019-01-19T19:23:11.169Z,12.60
2019-01-19T19:25:42.835Z,13.47
2019-01-19T19:28:35.440Z,12.50
2019-01-19T19:31:16.229Z,13.47
2019-01-19T19:34:03.122Z,15.60
2019-01-19T19:36:49.714Z,13.83
2019-01-19T19:39:33.145Z,18.80
2019-01-19T19:42:29.050Z,14.70
2019-01-19T19:45:18.644Z,15.83
2019-01-19T19:48:11.001Z,14.33
2019-01-19T19:50:45.340Z,18.43
2019-01-19T19:53:13.832Z,18.00
2019-01-19T19:55:41.250Z,12.00
2019-01-19T19:58:10.010Z,15.10
2019-01-19T20:00:38.629Z,15.67
2019-01-19T20:03:07.269Z,16.47
2019-01-19T20:05:36.112Z,15.73
2019-01-19T20:08:04.817Z,14.40
2019-01-19T20:10:33.369Z,8.90
2019-01-19T20:13:01.884Z,12.03
2019-01-19T20:15:30.516Z,13.83
2019-01-19T20:17:59.024Z,16.07
2019-01-19T20:20:27.534Z,12.17
2019-01-19T20:22:55.994Z,16.43
2019-01-19T20:25:24.484Z,16.47
2019-01-19T20:27:53.062Z,14.30
2019-01-19T20:30:21.621Z,15.53
2019-01-19T20:32:50.562Z,15.93
2019-01-19T20:35:19.225Z,13.97
2019-01-19T20:37:47.696Z,8.43
2019-01-19T20:40:16.250Z,8.87
2019-01-19T20:42:44.896Z,10.87
2019-01-19T20:45:14.217Z,16.27
2019-01-19T20:47:42.713Z,15.40
2019-01-19T20:50:12.943Z,14.43
2019-01-19T20:52:41.436Z,17.07
2019-01-19T20:55:11.460Z,17.63
2019-01-19T20:57:39.920Z,10.93
2019-01-19T21:00:12.860Z,13.27
2019-01-19T21:02:41.462Z,9.57
2019-01-19T21:05:10.113Z,11.23
2019-01-19T21:07:38.598Z,12.43
2019-01-19T21:10:08.064Z,13.20
2019-01-19T21:12:36.545Z,16.73
2019-01-19T21:15:08.112Z,10.90
2019-01-19T21:17:36.720Z,19.30
2019-01-19T21:20:08.482Z,14.87
2019-01-19T21:22:37.123Z,11.70
2019-01-19T21:25:07.337Z,10.53
2019-01-19T21:27:35.850Z,13.70
2019-01-19T21:30:07.460Z,13.37
2019-01-19T21:32:36.108Z,10.97
2019-01-19T21:35:06.748Z,14.17
2019-01-19T21:37:35.239Z,13.97
2019-01-19T21:40:05.811Z,13.97
2019-01-19T21:42:34.285Z,11.50
2019-01-19T21:45:02.930Z,11.00
2019-01-19T21:47:31.577Z,10.43
2019-01-19T21:50:00.168Z,10.93
2019-01-19T21:52:28.689Z,11.07
2019-01-19T21:54:57.228Z,14.17
2019-01-19T21:57:25.720Z,12.83
2019-01-19T21:59:54.201Z,10.13
2019-01-19T22:02:22.759Z,12.43
2019-01-19T22:04:51.361Z,19.37
2019-01-19T22:07:19.890Z,12.43
2019-01-19T22:09:48.356Z,12.57
2019-01-19T22:12:16.933Z,11.87
2019-01-19T22:14:45.713Z,9.93
2019-01-19T22:17:14.337Z,12.77
2019-01-19T22:19:42.889Z,13.07
2019-01-19T22:22:11.765Z,11.87
2019-01-19T22:24:40.277Z,17.83
2019-01-19T22:27:09.416Z,13.77
2019-01-19T22:29:37.971Z,14.50
2019-01-19T22:32:06.666Z,10.57
2019-01-19T22:34:35.229Z,18.50
2019-01-19T22:37:04.461Z,13.27
2019-01-19T22:39:32.966Z,11.97
2019-01-19T22:42:01.498Z,12.23
2019-01-19T22:44:29.960Z,14.87
2019-01-19T22:46:58.437Z,12.60
2019-01-19T22:49:26.934Z,15.57
2019-01-19T22:51:55.429Z,13.13
2019-01-19T22:54:23.881Z,12.97
2019-01-19T22:56:52.348Z,11.33
2019-01-19T22:59:20.849Z,13.30
2019-01-19T23:01:49.453Z,13.00
2019-01-19T23:04:18.004Z,13.03
2019-01-19T23:06:46.509Z,12.70
2019-01-19T23:09:15.012Z,12.60
2019-01-19T23:11:43.513Z,12.43
2019-01-19T23:14:12.228Z,13.43
2019-01-19T23:16:40.837Z,14.47
2019-01-19T23:19:09.317Z,14.03
2019-01-19T23:21:37.915Z,10.97
2019-01-19T23:24:06.437Z,13.00
2019-01-19T23:26:35.112Z,14.97
2019-01-19T23:29:03.682Z,14.37
2019-01-19T23:31:37.524Z,14.97
2019-01-19T23:34:06.216Z,12.97
2019-01-19T23:36:34.708Z,13.57
2019-01-19T23:39:04.150Z,12.90
2019-01-19T23:41:32.645Z,8.07
2019-01-19T23:44:01.131Z,10.23
2019-01-19T23:46:29.642Z,8.73
2019-01-19T23:48:58.149Z,10.27
2019-01-19T23:51:26.781Z,11.40
2019-01-19T23:53:55.265Z,7.73
2019-01-19T23:56:23.756Z,6.97
2019-01-19T23:58:52.248Z,7.93
